Time;durP1;ratioP1;P1;durP2;ratioP2;P2;SDS_P1;SDS_P2;PMS_P1;PMS_P2;Temp;Humidity;BMP_temperature;BMP_pressure;BME280_temperature;BME280_humidity;BME280_pressure;Samples;Min_cycle;Max_cycle;Signal;HPM_P1;HPM_P2
2021/07/25 00:01:35;;;;;;;12.52;8.35;;;;;;;;;;5035820;28;20361;-81
2021/07/25 00:04:20;;;;;;;9.57;6.78;;;;;;;;;;5037410;28;20384;-81
2021/07/25 00:07:05;;;;;;;12.25;7.45;;;;;;;;;;5040426;28;20082;-82
2021/07/25 00:09:50;;;;;;;9.25;7.38;;;;;;;;;;5032935;28;20021;-82
2021/07/25 00:12:35;;;;;;;13.30;8.77;;;;;;;;;;5041688;28;20108;-81
2021/07/25 00:15:21;;;;;;;14.65;8.57;;;;;;;;;;5047178;28;20393;-82
2021/07/25 00:18:06;;;;;;;9.77;7.05;;;;;;;;;;5033408;28;20100;-82
2021/07/25 00:20:51;;;;;;;10.63;8.05;;;;;;;;;;5038117;28;20514;-82
2021/07/25 00:23:37;;;;;;;12.10;8.55;;;;;;;;;;5032355;28;20025;-81
2021/07/25 00:26:27;;;;;;;10.80;7.72;;;;;;;;;;5026931;28;20032;-82
2021/07/25 00:29:12;;;;;;;12.15;7.68;;;;;;;;;;5035482;28;20100;-81
2021/07/25 00:31:58;;;;;;;13.38;8.60;;;;;;;;;;5036893;28;20120;-82
2021/07/25 00:34:44;;;;;;;10.93;7.82;;;;;;;;;;5034035;28;20025;-81
2021/07/25 00:37:29;;;;;;;12.68;8.35;;;;;;;;;;5035823;28;20735;-83
2021/07/25 00:40:21;;;;;;;13.30;7.97;;;;;;;;;;5035777;28;20060;-82
2021/07/25 00:43:06;;;;;;;10.63;8.43;;;;;;;;;;5037369;28;20025;-82
2021/07/25 00:45:52;;;;;;;11.80;8.23;;;;;;;;;;5036878;28;20052;-81
2021/07/25 00:48:37;;;;;;;15.15;9.15;;;;;;;;;;5033918;28;20021;-81
2021/07/25 00:51:23;;;;;;;13.23;7.90;;;;;;;;;;5035370;28;20017;-84
2021/07/25 00:54:08;;;;;;;11.80;8.18;;;;;;;;;;5037442;28;20040;-81
2021/07/25 00:56:53;;;;;;;14.27;8.88;;;;;;;;;;5037133;28;20680;-82
2021/07/25 00:59:38;;;;;;;13.95;8.63;;;;;;;;;;5034685;28;20534;-83
2021/07/25 01:02:24;;;;;;;10.48;8.02;;;;;;;;;;5034814;28;20482;-83
2021/07/25 01:05:12;;;;;;;14.57;8.55;;;;;;;;;;5036009;28;20021;-81
2021/07/25 01:08:09;;;;;;;14.73;8.27;;;;;;;;;;5033969;28;20017;-82
2021/07/25 01:10:55;;;;;;;13.55;7.93;;;;;;;;;;5034849;28;20025;-82
2021/07/25 01:13:42;;;;;;;13.23;10.02;;;;;;;;;;5052008;28;20483;-82
2021/07/25 01:16:27;;;;;;;14.23;8.93;;;;;;;;;;5038386;28;20106;-81
2021/07/25 01:19:12;;;;;;;14.95;8.25;;;;;;;;;;5031799;28;20029;-83
2021/07/25 01:21:57;;;;;;;14.52;8.40;;;;;;;;;;5035622;28;20379;-82
2021/07/25 01:24:43;;;;;;;13.35;9.93;;;;;;;;;;5034706;28;20108;-82
2021/07/25 01:27:54;;;;;;;15.23;12.43;;;;;;;;;;5049478;28;20033;-82
2021/07/25 01:30:41;;;;;;;15.93;12.20;;;;;;;;;;5035744;28;20029;-83
2021/07/25 01:33:28;;;;;;;14.73;8.98;;;;;;;;;;5029923;28;20105;-82
2021/07/25 01:36:14;;;;;;;12.23;8.65;;;;;;;;;;5048030;28;20052;-82
2021/07/25 01:38:59;;;;;;;15.93;9.88;;;;;;;;;;5031708;28;20025;-82
2021/07/25 01:41:44;;;;;;;11.48;8.23;;;;;;;;;;5036814;28;20076;-84
2021/07/25 01:44:29;;;;;;;11.23;7.95;;;;;;;;;;5034555;28;20043;-82
2021/07/25 01:47:14;;;;;;;13.80;7.90;;;;;;;;;;5035587;28;20047;-82
2021/07/25 01:50:00;;;;;;;14.48;8.18;;;;;;;;;;5034886;28;20037;-82
2021/07/25 01:52:45;;;;;;;12.05;7.88;;;;;;;;;;5032669;28;20027;-81
2021/07/25 01:55:30;;;;;;;16.35;8.80;;;;;;;;;;5032246;28;20029;-82
2021/07/25 01:58:15;;;;;;;12.50;9.00;;;;;;;;;;5034932;28;20023;-82
2021/07/25 02:01:00;;;;;;;13.05;7.88;;;;;;;;;;5032586;28;20013;-81
2021/07/25 02:03:46;;;;;;;11.93;8.00;;;;;;;;;;5035051;28;20017;-81
2021/07/25 02:06:33;;;;;;;16.80;8.43;;;;;;;;;;5036144;28;20044;-79
2021/07/25 02:09:19;;;;;;;12.60;8.30;;;;;;;;;;5039733;28;20084;-79
2021/07/25 02:12:04;;;;;;;12.38;8.57;;;;;;;;;;5045691;28;20021;-79
2021/07/25 02:14:50;;;;;;;13.65;8.50;;;;;;;;;;5051082;28;20078;-78
2021/07/25 02:17:35;;;;;;;13.23;8.40;;;;;;;;;;5027029;28;20023;-79
2021/07/25 02:20:20;;;;;;;12.75;8.30;;;;;;;;;;5035516;28;20014;-78
2021/07/25 02:23:06;;;;;;;11.57;7.90;;;;;;;;;;5019338;28;20408;-81
2021/07/25 02:25:51;;;;;;;12.38;8.98;;;;;;;;;;5021189;28;20079;-79
2021/07/25 02:28:36;;;;;;;12.00;8.57;;;;;;;;;;5031012;28;20018;-80
2021/07/25 02:31:21;;;;;;;13.90;8.02;;;;;;;;;;5018101;28;20427;-79
2021/07/25 02:34:07;;;;;;;11.48;7.63;;;;;;;;;;5020277;28;20033;-78
2021/07/25 02:36:52;;;;;;;12.65;7.65;;;;;;;;;;5030898;28;20025;-82
2021/07/25 02:39:40;;;;;;;16.60;8.30;;;;;;;;;;5026685;28;20059;-80
2021/07/25 02:42:25;;;;;;;13.45;8.75;;;;;;;;;;5028258;28;20025;-82
2021/07/25 02:45:11;;;;;;;11.35;8.07;;;;;;;;;;5026455;28;20078;-82
2021/07/25 02:47:56;;;;;;;14.35;8.43;;;;;;;;;;5014112;28;20021;-83
2021/07/25 02:50:41;;;;;;;12.70;7.80;;;;;;;;;;5013804;28;20021;-82
2021/07/25 02:53:26;;;;;;;13.25;8.70;;;;;;;;;;5024052;28;20070;-82
2021/07/25 02:56:11;;;;;;;15.48;9.18;;;;;;;;;;5027841;28;20076;-85
2021/07/25 02:58:56;;;;;;;13.32;9.20;;;;;;;;;;5027268;28;20376;-82
2021/07/25 03:01:42;;;;;;;13.23;8.07;;;;;;;;;;5012168;28;20079;-82
2021/07/25 03:04:27;;;;;;;16.00;8.27;;;;;;;;;;5013703;28;20021;-83
2021/07/25 03:07:12;;;;;;;15.15;9.38;;;;;;;;;;5025776;28;20037;-82
2021/07/25 03:09:57;;;;;;;13.82;8.90;;;;;;;;;;5029240;28;20578;-81
2021/07/25 03:12:43;;;;;;;9.95;8.43;;;;;;;;;;5037820;28;20021;-81
2021/07/25 03:15:28;;;;;;;12.73;7.70;;;;;;;;;;5044110;28;20255;-82
2021/07/25 03:18:13;;;;;;;12.40;8.85;;;;;;;;;;5037142;28;20034;-84
2021/07/25 03:20:59;;;;;;;13.88;8.80;;;;;;;;;;5036863;28;20487;-82
2021/07/25 03:23:44;;;;;;;14.90;9.88;;;;;;;;;;5036686;28;20036;-82
2021/07/25 03:26:29;;;;;;;13.63;8.25;;;;;;;;;;5037223;28;20422;-82
2021/07/25 03:29:14;;;;;;;11.60;7.80;;;;;;;;;;5037380;28;20067;-82
2021/07/25 03:31:59;;;;;;;12.10;7.60;;;;;;;;;;5037058;28;20078;-81
2021/07/25 03:34:45;;;;;;;14.20;8.07;;;;;;;;;;5036971;28;20021;-83
2021/07/25 03:37:31;;;;;;;12.07;8.23;;;;;;;;;;5036948;28;20112;-83
2021/07/25 03:40:16;;;;;;;12.55;8.80;;;;;;;;;;5035017;28;20492;-84
2021/07/25 03:43:02;;;;;;;12.88;8.07;;;;;;;;;;5036394;28;20028;-83
2021/07/25 03:45:47;;;;;;;15.88;9.38;;;;;;;;;;5033061;28;20371;-83
2021/07/25 03:48:32;;;;;;;15.48;9.00;;;;;;;;;;5036665;28;20067;-82
2021/07/25 03:51:17;;;;;;;13.60;8.02;;;;;;;;;;5035025;28;20185;-83
2021/07/25 03:54:03;;;;;;;11.20;8.05;;;;;;;;;;5036364;28;20028;-82
2021/07/25 03:56:49;;;;;;;16.65;9.18;;;;;;;;;;5036588;28;20033;-82
2021/07/25 03:59:34;;;;;;;13.30;7.88;;;;;;;;;;5048411;28;20395;-83
2021/07/25 04:02:19;;;;;;;14.95;7.70;;;;;;;;;;5035890;28;20115;-82
2021/07/25 04:05:05;;;;;;;12.40;8.48;;;;;;;;;;5036143;28;20052;-84
2021/07/25 04:07:50;;;;;;;11.88;8.07;;;;;;;;;;5036177;28;20025;-82
2021/07/25 04:10:38;;;;;;;14.05;8.90;;;;;;;;;;5035949;28;20051;-82
2021/07/25 04:13:23;;;;;;;12.48;8.23;;;;;;;;;;5051714;28;20025;-83
2021/07/25 04:16:08;;;;;;;11.85;7.75;;;;;;;;;;5040978;28;20506;-82
2021/07/25 04:18:54;;;;;;;13.90;7.50;;;;;;;;;;5035958;28;20498;-82
2021/07/25 04:21:39;;;;;;;12.93;7.65;;;;;;;;;;5035323;28;20029;-82
2021/07/25 04:24:24;;;;;;;14.23;8.55;;;;;;;;;;5035656;28;20123;-82
2021/07/25 04:27:10;;;;;;;12.25;8.05;;;;;;;;;;5021854;28;20017;-84
2021/07/25 04:29:56;;;;;;;12.98;8.70;;;;;;;;;;5035556;28;20025;-82
2021/07/25 04:32:41;;;;;;;11.32;7.50;;;;;;;;;;5035804;28;20501;-82
2021/07/25 04:35:27;;;;;;;14.80;9.32;;;;;;;;;;5035210;28;20487;-82
2021/07/25 04:38:12;;;;;;;14.07;8.30;;;;;;;;;;5035527;28;20059;-82
2021/07/25 04:41:00;;;;;;;13.40;8.07;;;;;;;;;;5033848;28;20650;-82
2021/07/25 04:43:45;;;;;;;10.80;7.78;;;;;;;;;;5035483;28;20080;-81
2021/07/25 04:46:33;;;;;;;11.05;6.72;;;;;;;;;;5035403;28;20151;-82
2021/07/25 04:49:18;;;;;;;12.57;6.72;;;;;;;;;;5035601;28;20394;-84
2021/07/25 04:52:06;;;;;;;9.45;6.65;;;;;;;;;;5035624;28;20360;-84
2021/07/25 04:54:53;;;;;;;11.95;7.55;;;;;;;;;;5035979;28;20021;-84
2021/07/25 04:57:39;;;;;;;14.13;7.80;;;;;;;;;;5035573;28;20033;-83
2021/07/25 05:00:24;;;;;;;9.98;7.45;;;;;;;;;;5033911;28;20035;-83
2021/07/25 05:03:12;;;;;;;11.55;7.68;;;;;;;;;;5035090;28;20020;-83
2021/07/25 05:05:57;;;;;;;11.50;7.75;;;;;;;;;;5035340;28;20055;-83
2021/07/25 05:08:43;;;;;;;10.80;7.72;;;;;;;;;;5035430;28;20372;-83
2021/07/25 05:11:32;;;;;;;9.82;7.55;;;;;;;;;;5035634;28;20277;-84
2021/07/25 05:14:17;;;;;;;;;;;;;;;;;;5012518;28;20104;-83
2021/07/25 05:17:03;;;;;;;12.60;7.60;;;;;;;;;;5035429;28;19958;-83
2021/07/25 05:19:56;;;;;;;12.45;7.85;;;;;;;;;;5035409;28;20107;-83
2021/07/25 05:22:46;;;;;;;12.55;7.63;;;;;;;;;;5034921;28;20032;-83
2021/07/25 05:25:32;;;;;;;11.85;7.68;;;;;;;;;;5035117;28;20025;-83
2021/07/25 05:28:18;;;;;;;11.80;7.63;;;;;;;;;;5035257;28;20083;-83
2021/07/25 05:31:05;;;;;;;14.68;7.50;;;;;;;;;;5033483;28;20174;-82
2021/07/25 05:33:50;;;;;;;10.48;7.40;;;;;;;;;;5035070;28;20027;-83
2021/07/25 05:36:35;;;;;;;8.77;6.95;;;;;;;;;;5034762;28;20064;-82
2021/07/25 05:39:20;;;;;;;8.82;6.68;;;;;;;;;;5034433;28;20024;-83
2021/07/25 05:42:06;;;;;;;10.73;7.07;;;;;;;;;;5034619;28;20550;-82
2021/07/25 05:44:51;;;;;;;12.85;8.23;;;;;;;;;;5034695;28;20573;-82
2021/07/25 05:47:37;;;;;;;9.88;7.15;;;;;;;;;;5034318;28;20115;-83
2021/07/25 05:50:22;;;;;;;11.75;7.07;;;;;;;;;;5032748;28;20032;-83
2021/07/25 05:53:07;;;;;;;10.90;6.95;;;;;;;;;;5034514;28;20060;-83
2021/07/25 05:55:52;;;;;;;14.73;7.20;;;;;;;;;;5034465;28;20021;-83
2021/07/25 05:58:38;;;;;;;9.88;7.35;;;;;;;;;;5034515;28;20044;-83
2021/07/25 06:01:23;;;;;;;11.07;7.60;;;;;;;;;;5034413;28;20021;-84
2021/07/25 06:04:08;;;;;;;13.20;7.35;;;;;;;;;;5034106;28;20032;-83
2021/07/25 06:06:53;;;;;;;10.30;6.85;;;;;;;;;;5034249;28;20037;-84
2021/07/25 06:09:38;;;;;;;9.68;6.80;;;;;;;;;;5048187;28;20024;-83
2021/07/25 06:12:24;;;;;;;9.57;7.10;;;;;;;;;;5041709;28;20020;-83
2021/07/25 06:15:09;;;;;;;9.18;6.07;;;;;;;;;;5047055;28;20013;-84
2021/07/25 06:17:55;;;;;;;8.65;5.82;;;;;;;;;;5032371;28;20025;-84
2021/07/25 06:20:40;;;;;;;8.73;5.85;;;;;;;;;;5034311;28;20021;-84
2021/07/25 06:23:26;;;;;;;10.57;6.80;;;;;;;;;;5031869;28;20032;-83
2021/07/25 06:26:11;;;;;;;9.35;5.47;;;;;;;;;;5033917;28;20387;-84
2021/07/25 06:28:56;;;;;;;8.30;6.10;;;;;;;;;;5034292;28;20021;-83
2021/07/25 06:31:41;;;;;;;11.65;6.15;;;;;;;;;;5034109;28;20095;-83
2021/07/25 06:34:26;;;;;;;8.73;5.63;;;;;;;;;;5033747;28;20471;-82
2021/07/25 06:37:11;;;;;;;10.15;5.60;;;;;;;;;;5020535;28;20037;-83
2021/07/25 06:39:57;;;;;;;9.40;6.30;;;;;;;;;;5033763;28;20041;-83
2021/07/25 06:42:42;;;;;;;8.57;6.63;;;;;;;;;;5034009;28;20025;-82
2021/07/25 06:45:28;;;;;;;10.05;6.45;;;;;;;;;;5038154;28;20446;-84
2021/07/25 06:48:17;;;;;;;10.23;5.68;;;;;;;;;;5038149;28;20033;-83
2021/07/25 06:51:03;;;;;;;;;;;;;;;;;;5038560;28;20032;-83
2021/07/25 06:53:48;;;;;;;9.30;6.63;;;;;;;;;;5037959;28;19915;-82
2021/07/25 06:56:33;;;;;;;9.38;7.13;;;;;;;;;;5037924;28;20493;-82
2021/07/25 06:59:18;;;;;;;11.70;7.10;;;;;;;;;;5035972;28;20462;-83
2021/07/25 07:02:04;;;;;;;19.35;7.80;;;;;;;;;;5037990;28;20033;-83
2021/07/25 07:04:49;;;;;;;9.18;7.15;;;;;;;;;;5037684;28;20091;-83
2021/07/25 07:07:34;;;;;;;12.82;8.98;;;;;;;;;;5037747;28;20067;-83
2021/07/25 07:10:21;;;;;;;13.73;8.77;;;;;;;;;;5037532;28;20021;-85
2021/07/25 07:13:07;;;;;;;12.13;8.60;;;;;;;;;;5050208;28;20498;-83
2021/07/25 07:15:52;;;;;;;12.52;7.72;;;;;;;;;;5044461;28;20029;-83
2021/07/25 07:18:38;;;;;;;10.73;7.88;;;;;;;;;;5037531;28;20419;-84
2021/07/25 07:21:23;;;;;;;14.32;9.23;;;;;;;;;;5035765;28;20120;-84
2021/07/25 07:24:08;;;;;;;15.02;8.30;;;;;;;;;;5036995;28;20114;-83
2021/07/25 07:26:53;;;;;;;16.95;11.90;;;;;;;;;;5033693;28;20031;-84
2021/07/25 07:29:41;;;;;;;14.15;10.93;;;;;;;;;;5036929;28;20025;-85
2021/07/25 07:32:26;;;;;;;13.60;7.97;;;;;;;;;;5033183;28;20499;-84
2021/07/25 07:35:11;;;;;;;12.63;9.25;;;;;;;;;;5037191;28;20025;-84
2021/07/25 07:37:56;;;;;;;12.85;9.18;;;;;;;;;;5036753;28;20356;-84
2021/07/25 07:40:43;;;;;;;28.23;17.90;;;;;;;;;;5036558;28;20138;-84
2021/07/25 07:43:28;;;;;;;14.57;9.50;;;;;;;;;;5036767;28;20086;-84
2021/07/25 07:46:14;;;;;;;13.73;8.43;;;;;;;;;;5036956;28;20020;-84
2021/07/25 07:48:59;;;;;;;11.93;7.60;;;;;;;;;;5036962;28;20423;-83
2021/07/25 07:51:45;;;;;;;10.35;7.10;;;;;;;;;;5036603;28;20024;-84
2021/07/25 07:54:30;;;;;;;10.65;8.48;;;;;;;;;;5035133;28;20025;-83
2021/07/25 07:57:15;;;;;;;15.45;9.13;;;;;;;;;;5036413;28;20029;-83
2021/07/25 08:00:00;;;;;;;39.40;30.33;;;;;;;;;;5036130;28;20090;-83
2021/07/25 08:02:46;;;;;;;16.73;13.15;;;;;;;;;;5034612;28;20036;-83
2021/07/25 08:05:31;;;;;;;14.13;9.82;;;;;;;;;;5036013;28;20021;-83
2021/07/25 08:08:16;;;;;;;10.70;7.95;;;;;;;;;;5036109;28;20033;-83
2021/07/25 08:11:01;;;;;;;12.35;7.47;;;;;;;;;;5023023;28;20017;-83
2021/07/25 08:13:46;;;;;;;9.65;6.80;;;;;;;;;;5055410;28;20060;-83
2021/07/25 08:16:32;;;;;;;10.43;6.95;;;;;;;;;;5038260;28;20029;-83
2021/07/25 08:19:17;;;;;;;9.52;6.70;;;;;;;;;;5034807;28;20040;-83
2021/07/25 08:22:03;;;;;;;10.80;6.22;;;;;;;;;;5036331;28;20086;-83
2021/07/25 08:24:49;;;;;;;13.07;6.90;;;;;;;;;;5036191;28;20041;-83
2021/07/25 08:27:35;;;;;;;10.13;6.90;;;;;;;;;;5036110;28;20146;-82
2021/07/25 08:30:21;;;;;;;9.63;6.78;;;;;;;;;;5034678;28;20020;-83
2021/07/25 08:33:06;;;;;;;8.13;6.20;;;;;;;;;;5036287;28;20017;-83
2021/07/25 08:35:51;;;;;;;9.88;6.32;;;;;;;;;;5034511;28;20025;-83
2021/07/25 08:38:37;;;;;;;9.35;6.72;;;;;;;;;;5036009;28;20102;-84
2021/07/25 08:41:40;;;;;;;9.68;6.43;;;;;;;;;;5035429;28;20040;-83
2021/07/25 08:44:44;;;;;;;10.20;5.88;;;;;;;;;;5035536;28;20049;-83
2021/07/25 08:47:29;;;;;;;10.50;6.32;;;;;;;;;;5035754;28;20043;-83
2021/07/25 08:50:15;;;;;;;8.63;6.10;;;;;;;;;;5034106;28;20024;-84
2021/07/25 08:53:02;;;;;;;10.65;6.25;;;;;;;;;;5035549;28;20480;-83
2021/07/25 08:55:47;;;;;;;8.77;5.88;;;;;;;;;;5035716;28;20036;-83
2021/07/25 08:58:37;;;;;;;9.05;6.60;;;;;;;;;;5035599;28;20104;-82
2021/07/25 09:01:25;;;;;;;8.27;5.70;;;;;;;;;;5035158;28;20489;-84
2021/07/25 09:04:10;;;;;;;8.02;6.13;;;;;;;;;;5035058;28;20051;-83
2021/07/25 09:06:57;;;;;;;12.75;7.15;;;;;;;;;;5034983;28;20035;-83
2021/07/25 09:09:43;;;;;;;13.88;6.07;;;;;;;;;;5035619;28;20082;-83
2021/07/25 09:12:30;;;;;;;8.13;5.75;;;;;;;;;;5043350;28;20025;-83
2021/07/25 09:15:17;;;;;;;7.55;5.68;;;;;;;;;;5047653;28;20409;-83
2021/07/25 09:18:03;;;;;;;7.20;5.53;;;;;;;;;;5035411;28;20037;-82
2021/07/25 09:20:48;;;;;;;9.95;5.97;;;;;;;;;;5033517;28;20074;-83
2021/07/25 09:23:34;;;;;;;8.27;5.50;;;;;;;;;;5034853;28;20040;-83
2021/07/25 09:26:19;;;;;;;9.40;5.78;;;;;;;;;;5035305;28;20029;-83
2021/07/25 09:29:17;;;;;;;9.65;5.85;;;;;;;;;;5035005;28;20029;-81
2021/07/25 09:32:16;;;;;;;8.43;5.68;;;;;;;;;;5021276;28;20028;-82
2021/07/25 09:35:01;;;;;;;10.18;7.32;;;;;;;;;;5035250;28;20326;-82
2021/07/25 09:37:48;;;;;;;12.68;7.93;;;;;;;;;;5034866;28;20021;-83
2021/07/25 09:40:34;;;;;;;12.00;8.30;;;;;;;;;;5034549;28;20057;-83
2021/07/25 09:43:23;;;;;;;15.63;9.13;;;;;;;;;;5031288;28;20027;-83
2021/07/25 09:46:09;;;;;;;17.65;9.73;;;;;;;;;;5035076;28;20017;-84
2021/07/25 09:48:56;;;;;;;12.75;8.57;;;;;;;;;;5031434;28;20072;-84
2021/07/25 09:51:42;;;;;;;13.98;8.82;;;;;;;;;;5034606;28;20029;-84
2021/07/25 09:54:27;;;;;;;8.60;6.45;;;;;;;;;;5020889;28;20083;-84
2021/07/25 09:57:12;;;;;;;12.80;8.50;;;;;;;;;;5031214;28;20070;-84
2021/07/25 09:59:58;;;;;;;13.15;9.23;;;;;;;;;;5034474;28;20430;-85
2021/07/25 10:02:45;;;;;;;10.65;7.93;;;;;;;;;;5034086;28;20032;-84
2021/07/25 10:05:32;;;;;;;13.10;8.38;;;;;;;;;;5034529;28;20262;-84
2021/07/25 10:08:18;;;;;;;10.90;6.78;;;;;;;;;;5034536;28;20662;-84
2021/07/25 10:11:03;;;;;;;13.45;6.93;;;;;;;;;;5034758;28;20060;-84
2021/07/25 10:13:49;;;;;;;9.98;6.30;;;;;;;;;;5053589;28;20059;-84
2021/07/25 10:16:34;;;;;;;9.75;6.85;;;;;;;;;;5035379;28;20025;-82
2021/07/25 10:19:26;;;;;;;8.95;6.55;;;;;;;;;;5032963;28;20436;-83
2021/07/25 10:22:12;;;;;;;8.82;6.50;;;;;;;;;;5034085;28;20017;-84
2021/07/25 10:24:59;;;;;;;9.25;6.38;;;;;;;;;;5033868;28;20348;-83
2021/07/25 10:27:45;;;;;;;9.75;6.55;;;;;;;;;;5034386;28;20024;-84
2021/07/25 10:30:30;;;;;;;8.00;5.47;;;;;;;;;;5020433;28;20495;-83
2021/07/25 10:33:17;;;;;;;8.88;6.30;;;;;;;;;;5034431;28;20033;-83
2021/07/25 10:36:02;;;;;;;8.35;6.30;;;;;;;;;;5034890;28;20502;-83
2021/07/25 10:38:48;;;;;;;9.18;6.22;;;;;;;;;;5034379;28;20378;-83
2021/07/25 10:41:33;;;;;;;9.30;6.25;;;;;;;;;;5034099;28;20111;-82
2021/07/25 10:44:19;;;;;;;13.05;5.90;;;;;;;;;;5033980;28;20099;-82
2021/07/25 10:47:20;;;;;;;8.85;5.35;;;;;;;;;;5033912;28;20799;-83
2021/07/25 10:50:07;;;;;;;7.57;5.63;;;;;;;;;;5034404;28;20029;-83
2021/07/25 10:52:54;;;;;;;8.98;6.45;;;;;;;;;;5020421;28;20056;-83
2021/07/25 10:55:43;;;;;;;10.65;6.68;;;;;;;;;;5033999;28;20032;-82
2021/07/25 10:58:28;;;;;;;9.63;5.93;;;;;;;;;;5033808;28;20716;-83
2021/07/25 11:01:33;;;;;;;8.35;5.95;;;;;;;;;;5033714;28;20021;-83
2021/07/25 11:04:38;;;;;;;8.65;5.50;;;;;;;;;;5031934;28;20032;-83
2021/07/25 11:07:23;;;;;;;10.43;5.47;;;;;;;;;;5030415;28;20021;-83
2021/07/25 11:10:12;;;;;;;11.85;7.03;;;;;;;;;;5033975;28;20025;-83
2021/07/25 11:12:58;;;;;;;8.77;5.93;;;;;;;;;;5032091;28;20483;-83
2021/07/25 11:15:43;;;;;;;9.70;6.45;;;;;;;;;;5045252;28;20170;-82
2021/07/25 11:18:29;;;;;;;9.23;5.75;;;;;;;;;;5053689;28;20483;-83
2021/07/25 11:21:29;;;;;;;9.07;5.95;;;;;;;;;;5039819;28;20031;-83
2021/07/25 11:24:23;;;;;;;10.15;6.22;;;;;;;;;;5053616;28;20017;-83
2021/07/25 11:27:09;;;;;;;7.38;6.03;;;;;;;;;;5053911;28;20021;-87
2021/07/25 11:29:54;;;;;;;11.38;6.45;;;;;;;;;;5046094;28;20021;-80
2021/07/25 11:32:39;;;;;;;10.77;6.63;;;;;;;;;;5039365;28;20044;-85
2021/07/25 11:35:24;;;;;;;9.48;6.72;;;;;;;;;;5035672;28;20036;-90
2021/07/25 11:38:11;;;;;;;11.23;7.60;;;;;;;;;;5035830;28;20032;-92
2021/07/25 11:40:56;;;;;;;10.98;6.20;;;;;;;;;;5037650;28;20067;-86
2021/07/25 11:43:48;;;;;;;8.93;6.45;;;;;;;;;;5021389;28;20037;-84
2021/07/25 11:46:46;;;;;;;10.02;6.70;;;;;;;;;;5035054;28;20074;-84
2021/07/25 11:49:36;;;;;;;8.80;7.22;;;;;;;;;;5038096;28;20375;-86
2021/07/25 11:52:24;;;;;;;11.15;7.07;;;;;;;;;;5036985;28;20021;-85
2021/07/25 11:55:10;;;;;;;11.80;7.55;;;;;;;;;;5050030;28;20039;-83
2021/07/25 11:58:11;;;;;;;12.93;7.28;;;;;;;;;;5050024;28;20028;-84
2021/07/25 12:01:09;;;;;;;12.30;8.20;;;;;;;;;;5039398;28;20036;-84
2021/07/25 12:03:55;;;;;;;14.10;7.90;;;;;;;;;;5045916;28;20083;-82
2021/07/25 12:06:40;;;;;;;10.35;7.95;;;;;;;;;;5049506;28;20024;-83
2021/07/25 12:09:25;;;;;;;10.27;7.78;;;;;;;;;;5037530;28;20144;-79
2021/07/25 12:12:15;;;;;;;13.93;7.45;;;;;;;;;;5035267;28;20039;-83
2021/07/25 12:15:01;;;;;;;10.55;7.80;;;;;;;;;;5024141;28;20086;-87
2021/07/25 12:17:48;;;;;;;13.43;10.95;;;;;;;;;;5027005;28;20475;-87
2021/07/25 12:20:33;;;;;;;14.63;11.70;;;;;;;;;;5020543;28;20482;-85
2021/07/25 12:23:34;;;;;;;13.45;9.00;;;;;;;;;;5021857;28;20033;-88
2021/07/25 12:26:20;;;;;;;14.88;9.05;;;;;;;;;;5032597;28;20025;-89
2021/07/25 12:29:24;;;;;;;11.00;8.38;;;;;;;;;;5031514;28;20024;-88
2021/07/25 12:32:25;;;;;;;11.52;8.43;;;;;;;;;;5034621;28;20104;-80
2021/07/25 12:35:13;;;;;;;12.38;7.85;;;;;;;;;;5030622;28;20021;-80
2021/07/25 12:38:07;;;;;;;10.70;7.53;;;;;;;;;;5033735;28;20060;-80
2021/07/25 12:40:59;;;;;;;11.18;7.47;;;;;;;;;;5022678;28;20049;-80
2021/07/25 12:43:57;;;;;;;9.43;6.90;;;;;;;;;;5016641;28;20108;-81
2021/07/25 12:46:42;;;;;;;8.68;6.13;;;;;;;;;;5026826;28;20029;-82
2021/07/25 12:49:28;;;;;;;12.23;5.80;;;;;;;;;;5026525;28;20056;-82
2021/07/25 12:52:20;;;;;;;7.53;5.60;;;;;;;;;;5026945;28;20090;-79
2021/07/25 12:55:05;;;;;;;10.52;5.90;;;;;;;;;;5046109;28;20082;-82
2021/07/25 12:57:50;;;;;;;6.47;5.38;;;;;;;;;;5047386;28;20077;-82
2021/07/25 13:00:49;;;;;;;13.43;8.63;;;;;;;;;;5034466;28;20786;-82
2021/07/25 13:03:52;;;;;;;11.07;8.02;;;;;;;;;;5030780;28;20025;-81
2021/07/25 13:06:39;;;;;;;25.42;11.98;;;;;;;;;;5029027;28;20424;-80
2021/07/25 13:09:25;;;;;;;19.45;9.85;;;;;;;;;;5034428;28;20631;-80
2021/07/25 13:12:10;;;;;;;10.95;6.97;;;;;;;;;;5030281;28;20021;-81
2021/07/25 13:14:55;;;;;;;9.15;5.50;;;;;;;;;;5024820;28;20460;-81
2021/07/25 13:17:40;;;;;;;12.93;6.65;;;;;;;;;;5039375;28;20018;-81
2021/07/25 13:20:25;;;;;;;9.57;6.53;;;;;;;;;;5030255;28;20099;-80
2021/07/25 13:23:12;;;;;;;10.90;6.75;;;;;;;;;;5039061;28;20177;-83
2021/07/25 13:25:57;;;;;;;8.30;5.90;;;;;;;;;;5032431;28;20104;-82
2021/07/25 13:28:43;;;;;;;10.93;6.13;;;;;;;;;;5028380;28;20028;-80
2021/07/25 13:31:28;;;;;;;9.35;6.43;;;;;;;;;;5025614;28;20096;-80
2021/07/25 13:34:13;;;;;;;10.00;6.00;;;;;;;;;;5031668;28;20135;-80
2021/07/25 13:36:59;;;;;;;10.02;5.75;;;;;;;;;;5035184;28;20130;-82
2021/07/25 13:39:44;;;;;;;8.70;5.60;;;;;;;;;;5040879;28;20056;-81
2021/07/25 13:42:29;;;;;;;9.77;5.97;;;;;;;;;;5023595;28;20021;-80
2021/07/25 13:45:14;;;;;;;9.38;6.35;;;;;;;;;;5031026;28;20028;-81
2021/07/25 13:47:59;;;;;;;10.15;7.38;;;;;;;;;;5034143;28;20017;-81
2021/07/25 13:50:45;;;;;;;9.43;6.85;;;;;;;;;;5033846;28;20467;-82
2021/07/25 13:53:30;;;;;;;10.73;6.63;;;;;;;;;;5019853;28;20383;-83
2021/07/25 13:56:16;;;;;;;9.00;6.25;;;;;;;;;;5033396;28;20434;-83
2021/07/25 13:59:02;;;;;;;11.75;7.45;;;;;;;;;;5033656;28;20049;-79
2021/07/25 14:01:47;;;;;;;8.95;6.85;;;;;;;;;;5032169;28;20037;-82
2021/07/25 14:04:32;;;;;;;9.75;6.90;;;;;;;;;;5030892;28;20025;-82
2021/07/25 14:07:17;;;;;;;18.02;14.48;;;;;;;;;;5033019;28;20711;-81
2021/07/25 14:10:02;;;;;;;19.08;17.02;;;;;;;;;;5029427;28;20138;-83
2021/07/25 14:12:48;;;;;;;10.63;7.35;;;;;;;;;;5025686;28;20043;-84
2021/07/25 14:15:36;;;;;;;9.13;6.55;;;;;;;;;;5027683;28;20064;-80
2021/07/25 14:18:21;;;;;;;9.75;6.47;;;;;;;;;;5030242;28;20036;-82
2021/07/25 14:21:10;;;;;;;8.75;6.75;;;;;;;;;;5028812;28;20523;-84
2021/07/25 14:23:55;;;;;;;8.73;6.10;;;;;;;;;;5020868;28;20483;-80
2021/07/25 14:26:40;;;;;;;9.23;6.97;;;;;;;;;;5030469;28;20047;-79
2021/07/25 14:29:25;;;;;;;9.63;6.93;;;;;;;;;;5034582;28;20520;-80
2021/07/25 14:32:11;;;;;;;9.02;6.57;;;;;;;;;;5032151;28;20079;-80
2021/07/25 14:34:56;;;;;;;9.77;6.50;;;;;;;;;;5030803;28;20116;-80
2021/07/25 14:37:41;;;;;;;8.20;6.47;;;;;;;;;;5032196;28;20693;-80
2021/07/25 14:40:26;;;;;;;9.82;6.75;;;;;;;;;;5028250;28;20052;-82
2021/07/25 14:43:12;;;;;;;9.40;6.28;;;;;;;;;;5028127;28;20079;-81
2021/07/25 14:45:57;;;;;;;8.90;6.30;;;;;;;;;;5037550;28;20072;-80
2021/07/25 14:48:42;;;;;;;9.20;7.00;;;;;;;;;;5027275;28;20379;-83
2021/07/25 14:51:27;;;;;;;8.55;6.60;;;;;;;;;;5027754;28;20083;-80
2021/07/25 14:54:13;;;;;;;8.32;6.55;;;;;;;;;;5038795;28;20479;-83
2021/07/25 14:56:58;;;;;;;8.23;6.32;;;;;;;;;;5032710;28;20017;-80
2021/07/25 14:59:43;;;;;;;10.00;6.78;;;;;;;;;;5028166;28;20131;-79
2021/07/25 15:02:29;;;;;;;7.25;5.55;;;;;;;;;;5030294;28;20682;-80
2021/07/25 15:05:14;;;;;;;7.68;4.78;;;;;;;;;;5025450;28;20582;-80
2021/07/25 15:07:59;;;;;;;8.63;5.70;;;;;;;;;;5034155;28;20044;-81
2021/07/25 15:10:44;;;;;;;6.53;5.38;;;;;;;;;;5032408;28;20029;-82
2021/07/25 15:13:30;;;;;;;6.68;4.70;;;;;;;;;;5048416;28;20059;-80
2021/07/25 15:16:15;;;;;;;6.47;4.30;;;;;;;;;;5021103;28;20434;-85
2021/07/25 15:19:01;;;;;;;7.63;4.63;;;;;;;;;;5021938;28;20271;-79
2021/07/25 15:21:46;;;;;;;7.35;5.05;;;;;;;;;;5029747;28;20028;-81
2021/07/25 15:24:31;;;;;;;4.78;3.50;;;;;;;;;;5028141;28;20033;-81
2021/07/25 15:27:17;;;;;;;3.70;2.90;;;;;;;;;;5022351;28;20355;-79
2021/07/25 15:30:02;;;;;;;7.18;3.65;;;;;;;;;;5015717;28;20372;-80
2021/07/25 15:32:48;;;;;;;5.15;3.33;;;;;;;;;;5018911;28;20029;-80
2021/07/25 15:35:34;;;;;;;4.63;3.30;;;;;;;;;;5022825;28;20678;-80
2021/07/25 15:38:19;;;;;;;4.35;3.30;;;;;;;;;;5016253;28;20021;-80
2021/07/25 15:41:05;;;;;;;6.32;4.85;;;;;;;;;;5019660;28;20055;-80
2021/07/25 15:43:50;;;;;;;4.35;3.35;;;;;;;;;;5018256;28;20009;-80
2021/07/25 15:46:35;;;;;;;4.60;2.92;;;;;;;;;;5029466;28;20028;-80
2021/07/25 15:49:21;;;;;;;6.15;3.30;;;;;;;;;;5027712;28;20028;-79
2021/07/25 15:52:08;;;;;;;6.07;3.47;;;;;;;;;;5034149;28;20079;-79
2021/07/25 15:54:53;;;;;;;6.65;3.70;;;;;;;;;;5032518;28;20044;-82
2021/07/25 15:57:38;;;;;;;4.70;3.40;;;;;;;;;;5033540;28;20028;-80
2021/07/25 16:00:23;;;;;;;4.43;3.35;;;;;;;;;;5042117;28;20479;-78
2021/07/25 16:03:08;;;;;;;4.22;3.50;;;;;;;;;;5031728;28;20033;-79
2021/07/25 16:05:54;;;;;;;10.50;7.70;;;;;;;;;;5025410;28;20032;-83
2021/07/25 16:08:39;;;;;;;4.57;3.28;;;;;;;;;;5028750;28;20087;-80
2021/07/25 16:11:27;;;;;;;7.35;3.67;;;;;;;;;;5021703;28;20017;-80
2021/07/25 16:14:12;;;;;;;5.95;3.65;;;;;;;;;;5031794;28;20087;-81
2021/07/25 16:16:57;;;;;;;4.95;3.47;;;;;;;;;;5015010;28;20095;-80
2021/07/25 16:19:43;;;;;;;5.45;3.28;;;;;;;;;;5019561;28;20499;-80
2021/07/25 16:22:28;;;;;;;6.68;3.30;;;;;;;;;;5017984;28;20025;-79
2021/07/25 16:25:13;;;;;;;4.10;3.05;;;;;;;;;;5019656;28;20037;-83
2021/07/25 16:27:59;;;;;;;6.28;3.53;;;;;;;;;;5022777;28;20047;-79
2021/07/25 16:30:44;;;;;;;9.63;6.32;;;;;;;;;;5016967;28;20491;-77